Detall de PIREP

Printer-friendly versionPDF version

[2010/11/19 17:33:00]
Flight IATA:CT0001
Pilot Number:042
Company ICAO:CAT
Aircraft Type:B763/F
PAX:100
Departing Airport: LEAL
Destination Airport: LEBL
Alternate Airport:LEPA
Online: VATSIM
Route:MITOS UN609 MATEX
Flight Level:FL280
No Slew and time accel
No pause
Crash detect
Detect pilot in Cockpit between each 30 and 45 minutes
17:33 Zero fuel Weight: 244976 Lbs, Fuel Weight: 159771 Lbs
17:33 VATSIM:LEAL 191700Z VRB02KT 9999 FEW040 13/05 Q1017 NOSIG
17:33 VATSIM:LEBL 191700Z 32006KT 250V040 9999 FEW025 SCT055 11/06 Q1016 NOSIG
17:33 VOICE CATALONIAN
18:01 Parking Brakes off
18:11 Take-off
18:11 Take off Weight: 398580 Lbs
18:11 Wind: 003 @ 001 Knots Heading: 099
18:11 POS N38 16 48 W000 32 33
18:11 Gear Up: 191 Knots
18:11 Flaps:3 at 191 Knots
18:11 Flaps:2 at 193 Knots
18:12 Flaps:1 at 207 Knots
18:12 Flaps:0 at 225 Knots
18:25 TOC
18:25 FuelWeight: 146515 Lb
18:26 Wind:299@027 Knots Heading: 356 Ground Speed: 441 Knots Altitude 28106 ft
18:38 TOD
18:38 Fuel Weight: 143883 Lb
18:41 Wind:251@005 Knots Heading: 048 Ground Speed: 391 Knots Altitude 25059 ft
18:47 Flaps:1 at 252 Knots
18:47 Flaps:2 at 249 Knots
18:47 Flaps:1 at 247 Knots
18:49 Flaps:2 at 224 Knots
18:51 Flaps:3 at 197 Knots
18:54 Flaps:4 at 173 Knots
18:56 Wind:259@001 Knots Heading: 106 Ground Speed: 187 Knots Altitude 3832 ft
18:58 Gear Down: 153 Knots
18:59 Flaps:5 at 152 Knots
18:59 Flaps:6 at 151 Knots
19:03 TouchDown:Rate -407 ft/min Speed: 135 Knots
19:03 VATSIM:LEBL 191830Z 33006KT 9999 -RA FEW025 BKN050 11/07 Q1017 NOSIG
19:03 Land
19:03 Wind:332@006 Knots
19:03 Heading: 244
19:03 Flight Duration: 00:52
19:03 Landing Weight: 384548 Lbs
19:03 POS N41 18 02 E002 05 21
19:07 Parking brakes on
19:07 Block to Block Duration: 01:06
19:07 Final Fuel: 138662 Lbls
19:07 Spent Fuel: 21108 Lbls
19:07 Flight Length: 284 NM
19:07 TOD Land Length: 108 NM

Exportar CSV

Powered by Drupal - Modified by Danger4k